Time;durP1;ratioP1;P1;durP2;ratioP2;P2;SDS_P1;SDS_P2;PMS_P1;PMS_P2;Temp;Humidity;BMP_temperature;BMP_pressure;BME280_temperature;BME280_humidity;BME280_pressure;Samples;Min_cycle;Max_cycle;Signal;HPM_P1;HPM_P2
2022/09/14 00:02:15;;;;;;;3.83;2.00;;;20.30;1.00;;;;;;7383714;19;20006;-65
2022/09/14 00:04:47;;;;;;;4.13;2.00;;;20.30;1.00;;;;;;7359134;19;20110;-65
2022/09/14 00:07:17;;;;;;;3.65;1.98;;;20.20;1.00;;;;;;7358725;19;20019;-66
2022/09/14 00:09:47;;;;;;;2.42;1.70;;;20.20;1.00;;;;;;7359774;19;20006;-66
2022/09/14 00:12:17;;;;;;;5.50;1.80;;;20.30;1.00;;;;;;7364651;19;20018;-66
2022/09/14 00:14:48;;;;;;;4.82;1.90;;;20.20;1.00;;;;;;7363717;19;20020;-66
2022/09/14 00:17:17;;;;;;;2.33;1.88;;;20.10;1.00;;;;;;7386575;19;20442;-66
2022/09/14 00:19:52;;;;;;;2.35;1.77;;;20.00;1.00;;;;;;7367169;19;21035;-66
2022/09/14 00:22:21;;;;;;;;;;;19.90;1.00;;;;;;7370640;19;20038;-66
2022/09/14 00:24:51;;;;;;;3.25;1.85;;;19.90;1.00;;;;;;7364910;19;19922;-66
2022/09/14 00:27:21;;;;;;;2.40;1.90;;;19.90;1.00;;;;;;7366152;19;20093;-66
2022/09/14 00:29:51;;;;;;;3.50;2.00;;;19.90;1.00;;;;;;7366041;19;20025;-66
2022/09/14 00:32:21;;;;;;;4.45;1.92;;;20.00;1.00;;;;;;7388726;19;20462;-66
2022/09/14 00:34:53;;;;;;;2.50;1.90;;;20.10;1.00;;;;;;7363292;19;20495;-67
2022/09/14 00:37:23;;;;;;;6.93;2.00;;;20.10;1.00;;;;;;7363459;19;20010;-66
2022/09/14 00:39:53;;;;;;;3.20;1.90;;;20.20;1.00;;;;;;7364447;19;20489;-66
2022/09/14 00:42:23;;;;;;;4.93;2.13;;;20.10;1.00;;;;;;7370550;19;20011;-66
2022/09/14 00:45:03;;;;;;;4.15;1.80;;;20.10;1.00;;;;;;7364543;19;20019;-66
2022/09/14 00:47:34;;;;;;;2.75;1.90;;;20.10;1.00;;;;;;7386572;19;20010;-66
2022/09/14 00:50:07;;;;;;;3.55;2.40;;;20.10;1.00;;;;;;7364204;19;20010;-65
2022/09/14 00:52:41;;;;;;;3.08;1.90;;;20.10;1.00;;;;;;7368797;19;20031;-65
2022/09/14 00:55:14;;;;;;;1.70;1.60;;;20.10;1.00;;;;;;7363259;19;20026;-66
2022/09/14 00:57:46;;;;;;;4.90;1.80;;;20.10;1.00;;;;;;7364416;19;20007;-66
2022/09/14 01:00:19;;;;;;;4.57;2.20;;;20.10;1.00;;;;;;7363459;19;20006;-66
2022/09/14 01:02:48;;;;;;;2.85;2.10;;;20.10;1.00;;;;;;7369303;19;20009;-66
2022/09/14 01:05:26;;;;;;;3.58;2.30;;;20.20;1.00;;;;;;7385003;19;20601;-66
2022/09/14 01:08:23;;;;;;;5.20;2.40;;;20.10;1.00;;;;;;7363348;19;20034;-66
2022/09/14 01:11:06;;;;;;;3.95;2.60;;;20.10;1.00;;;;;;7362846;19;20057;-66
2022/09/14 01:13:43;;;;;;;3.10;2.40;;;20.00;1.00;;;;;;7367493;19;20002;-66
2022/09/14 01:16:22;;;;;;;6.45;1.80;;;19.90;1.00;;;;;;7362920;19;20015;-66
2022/09/14 01:18:56;;;;;;;1.85;1.67;;;19.80;1.00;;;;;;7367411;19;20047;-66
2022/09/14 01:21:32;;;;;;;2.92;2.50;;;19.80;1.00;;;;;;7362820;19;20010;-66
2022/09/14 01:24:13;;;;;;;4.25;2.28;;;19.80;1.00;;;;;;7365177;19;20086;-65
2022/09/14 01:27:13;;;;;;;3.63;2.33;;;19.80;1.00;;;;;;7363008;19;20015;-66
2022/09/14 01:29:51;;;;;;;3.67;2.20;;;19.70;1.00;;;;;;7363035;19;20014;-67
2022/09/14 01:32:25;;;;;;;2.60;1.90;;;19.70;1.00;;;;;;7388526;19;20029;-66
2022/09/14 01:35:01;;;;;;;3.78;2.00;;;19.80;1.00;;;;;;7362161;19;20684;-66
2022/09/14 01:37:36;;;;;;;5.97;2.22;;;19.60;1.00;;;;;;7363281;19;20011;-66
2022/09/14 01:40:12;;;;;;;6.22;2.38;;;19.70;1.00;;;;;;7362212;19;20006;-66
2022/09/14 01:42:45;;;;;;;6.05;2.50;;;19.80;1.00;;;;;;7367213;19;20023;-66
2022/09/14 01:45:21;;;;;;;14.73;4.23;;;19.80;1.00;;;;;;7362935;19;20006;-66
2022/09/14 01:47:55;;;;;;;5.97;3.53;;;19.50;6.80;;;;;;7363976;19;20046;-66
2022/09/14 01:50:27;;;;;;;;;;;19.20;11.80;;;;;;7384142;19;20367;-66
2022/09/14 01:53:01;;;;;;;20.38;5.72;;;18.90;21.50;;;;;;7366773;19;19915;-66
2022/09/14 01:55:35;;;;;;;13.85;4.63;;;18.60;34.70;;;;;;7361766;19;20026;-66
2022/09/14 01:58:08;;;;;;;;;;;18.20;41.20;;;;;;7366529;19;20011;-67
2022/09/14 02:00:44;;;;;;;10.70;5.20;;;18.10;99.90;;;;;;7361360;19;19919;-67
2022/09/14 02:03:18;;;;;;;9.40;5.18;;;17.90;99.90;;;;;;7365344;19;20006;-67
2022/09/14 02:05:53;;;;;;;9.52;5.47;;;17.80;91.50;;;;;;7362530;19;20339;-67
2022/09/14 02:08:24;;;;;;;7.45;4.78;;;17.70;60.40;;;;;;7386144;19;20485;-68
2022/09/14 02:10:53;;;;;;;9.88;5.18;;;17.60;57.70;;;;;;7360819;19;20021;-68
2022/09/14 02:13:23;;;;;;;11.40;5.68;;;17.50;56.50;;;;;;7365530;19;20697;-68
2022/09/14 02:15:56;;;;;;;8.43;4.82;;;17.50;58.30;;;;;;7360610;19;20047;-68
2022/09/14 02:18:26;;;;;;;8.13;5.47;;;17.60;59.60;;;;;;7364270;19;20371;-68
2022/09/14 02:20:59;;;;;;;6.80;4.70;;;17.60;60.30;;;;;;7360576;19;20018;-68
2022/09/14 02:23:30;;;;;;;9.48;5.53;;;17.60;61.40;;;;;;7385857;19;20017;-67
2022/09/14 02:26:00;;;;;;;9.52;4.82;;;17.60;62.70;;;;;;7361157;19;20014;-68
2022/09/14 02:28:29;;;;;;;9.32;4.90;;;17.60;63.90;;;;;;7364038;19;20082;-67
2022/09/14 02:31:10;;;;;;;8.38;5.05;;;17.70;64.60;;;;;;7359884;19;20019;-68
2022/09/14 02:33:47;;;;;;;7.35;4.13;;;17.50;64.10;;;;;;7365395;19;20014;-67
2022/09/14 02:36:21;;;;;;;7.75;5.30;;;17.60;64.70;;;;;;7359323;19;20654;-68
2022/09/14 02:38:57;;;;;;;9.50;4.40;;;17.70;66.10;;;;;;7365369;19;20011;-68
2022/09/14 02:41:40;;;;;;;6.03;4.43;;;17.60;64.50;;;;;;7381770;19;20007;-68
2022/09/14 02:44:20;;;;;;;6.65;4.53;;;17.40;62.70;;;;;;7362719;19;20406;-68
2022/09/14 02:47:00;;;;;;;8.05;4.50;;;17.40;61.60;;;;;;7360636;19;20002;-68
2022/09/14 02:49:39;;;;;;;9.10;4.88;;;17.40;64.00;;;;;;7363782;19;20007;-69
2022/09/14 02:52:17;;;;;;;6.53;5.10;;;17.40;63.80;;;;;;7362656;19;20010;-68
2022/09/14 02:54:52;;;;;;;7.70;5.53;;;17.40;64.00;;;;;;7360507;19;20521;-68
2022/09/14 02:57:22;;;;;;;7.10;5.47;;;17.40;64.40;;;;;;7361973;19;20030;-68
2022/09/14 02:59:54;;;;;;;7.63;5.28;;;17.40;65.60;;;;;;7361469;19;20015;-68
2022/09/14 03:02:27;;;;;;;12.45;5.60;;;17.50;65.90;;;;;;7385069;19;20038;-68
2022/09/14 03:04:57;;;;;;;8.98;5.78;;;17.50;67.10;;;;;;7359787;19;20038;-67
2022/09/14 03:07:26;;;;;;;8.63;6.22;;;17.50;68.10;;;;;;7361125;19;20014;-67
2022/09/14 03:09:56;;;;;;;9.73;6.70;;;17.30;68.00;;;;;;7360807;19;20473;-67
2022/09/14 03:12:26;;;;;;;10.77;7.38;;;17.40;68.60;;;;;;7362190;19;20388;-68
2022/09/14 03:14:56;;;;;;;10.25;6.00;;;17.40;68.80;;;;;;7360126;19;20125;-68
2022/09/14 03:17:28;;;;;;;8.65;6.43;;;17.40;69.40;;;;;;7383637;19;20018;-68
2022/09/14 03:19:58;;;;;;;7.57;6.28;;;17.40;69.80;;;;;;7360041;19;20327;-68
2022/09/14 03:22:28;;;;;;;11.05;6.65;;;17.40;70.10;;;;;;7361314;19;20007;-68
2022/09/14 03:24:58;;;;;;;7.88;5.93;;;17.40;70.80;;;;;;7360162;19;20014;-68
2022/09/14 03:27:27;;;;;;;8.02;6.65;;;17.40;70.60;;;;;;7363405;19;20010;-68
2022/09/14 03:29:57;;;;;;;9.55;6.50;;;17.40;71.10;;;;;;7361391;19;20048;-68
2022/09/14 03:32:29;;;;;;;8.35;6.68;;;17.40;71.10;;;;;;7384608;19;20006;-68
2022/09/14 03:34:59;;;;;;;8.88;6.53;;;17.40;71.40;;;;;;7358796;19;20031;-68
2022/09/14 03:37:29;;;;;;;11.50;6.85;;;17.30;71.20;;;;;;7359733;19;20371;-68
2022/09/14 03:39:59;;;;;;;9.20;6.82;;;17.40;71.60;;;;;;7361013;19;20038;-68
2022/09/14 03:42:29;;;;;;;8.00;6.47;;;17.30;71.40;;;;;;7362472;19;20030;-68
2022/09/14 03:44:59;;;;;;;11.50;7.05;;;17.40;71.60;;;;;;7359211;19;20967;-67
2022/09/14 03:47:31;;;;;;;15.70;7.15;;;17.40;71.70;;;;;;7383911;19;20017;-67
2022/09/14 03:50:01;;;;;;;9.75;7.28;;;17.40;71.10;;;;;;7366729;19;20011;-68
2022/09/14 03:52:31;;;;;;;10.98;7.88;;;17.50;71.50;;;;;;7369414;19;20011;-68
2022/09/14 03:55:00;;;;;;;12.82;7.43;;;17.50;71.10;;;;;;7365244;19;20021;-67
2022/09/14 03:57:30;;;;;;;9.27;7.00;;;17.40;70.90;;;;;;7367258;19;20037;-67
2022/09/14 04:00:00;;;;;;;10.30;7.30;;;17.40;70.80;;;;;;7367430;19;20502;-67
2022/09/14 04:02:32;;;;;;;9.00;6.93;;;17.50;71.40;;;;;;7390714;19;20015;-67
2022/09/14 04:05:02;;;;;;;9.10;7.68;;;17.50;71.10;;;;;;7364543;19;20007;-67
2022/09/14 04:07:32;;;;;;;10.13;7.00;;;17.50;71.10;;;;;;7367312;19;20011;-67
2022/09/14 04:10:01;;;;;;;9.35;7.25;;;17.50;71.40;;;;;;7366765;19;20470;-68
2022/09/14 04:12:36;;;;;;;12.07;7.60;;;17.60;71.80;;;;;;7368272;19;20021;-68
2022/09/14 04:15:07;;;;;;;9.23;6.55;;;17.60;71.90;;;;;;7364964;19;20010;-69
2022/09/14 04:17:39;;;;;;;10.27;6.95;;;17.50;71.50;;;;;;7384955;19;20022;-70
2022/09/14 04:20:10;;;;;;;9.65;7.00;;;17.50;71.60;;;;;;7387593;19;20007;-69
2022/09/14 04:22:40;;;;;;;13.68;7.43;;;17.60;72.20;;;;;;7369793;19;20035;-67
2022/09/14 04:25:10;;;;;;;11.65;7.38;;;17.60;71.80;;;;;;7364011;19;20344;-69
2022/09/14 04:27:40;;;;;;;12.10;6.90;;;17.50;71.70;;;;;;7367339;19;20462;-68
2022/09/14 04:30:11;;;;;;;10.18;7.07;;;17.60;72.00;;;;;;7366357;19;20030;-68
2022/09/14 04:32:43;;;;;;;11.75;7.13;;;17.60;72.20;;;;;;7369891;19;20018;-68
2022/09/14 04:35:13;;;;;;;9.50;7.03;;;17.60;72.10;;;;;;7384905;19;20024;-68
2022/09/14 04:37:43;;;;;;;9.60;7.13;;;17.60;72.20;;;;;;7366425;19;20014;-68
2022/09/14 04:40:13;;;;;;;10.20;7.30;;;17.60;72.20;;;;;;7366629;19;20021;-68
2022/09/14 04:42:43;;;;;;;12.38;7.63;;;17.60;72.20;;;;;;7368913;19;20007;-68
2022/09/14 04:45:13;;;;;;;11.27;7.82;;;17.60;72.30;;;;;;7363901;19;20090;-68
2022/09/14 04:47:45;;;;;;;12.05;6.43;;;17.70;72.70;;;;;;7365235;19;20012;-69
2022/09/14 04:50:15;;;;;;;10.43;7.00;;;17.70;72.90;;;;;;7385836;19;20010;-68
2022/09/14 04:52:45;;;;;;;10.35;7.50;;;17.80;73.10;;;;;;7369370;19;20002;-68
2022/09/14 04:55:15;;;;;;;10.90;7.32;;;17.80;73.10;;;;;;7364016;19;20002;-69
2022/09/14 04:57:44;;;;;;;11.63;7.18;;;17.80;73.20;;;;;;7366294;19;20014;-68
2022/09/14 05:00:15;;;;;;;13.85;8.02;;;17.80;73.20;;;;;;7365369;19;20006;-69
2022/09/14 05:02:48;;;;;;;11.35;7.53;;;17.80;73.30;;;;;;7369760;19;20087;-68
2022/09/14 05:05:18;;;;;;;11.02;7.88;;;17.90;73.50;;;;;;7384681;19;20010;-65
2022/09/14 05:07:47;;;;;;;12.95;11.50;;;17.80;73.30;;;;;;7364114;19;20013;-65
2022/09/14 05:10:18;;;;;;;15.18;11.70;;;17.50;72.80;;;;;;7364775;19;20486;-66
2022/09/14 05:12:47;;;;;;;13.15;10.52;;;17.50;73.00;;;;;;7366161;19;20014;-67
2022/09/14 05:15:17;;;;;;;17.02;14.13;;;17.50;73.60;;;;;;7362288;19;20011;-67
2022/09/14 05:17:50;;;;;;;15.98;13.95;;;17.40;73.70;;;;;;7364316;19;20018;-67
2022/09/14 05:20:19;;;;;;;15.45;13.80;;;17.40;73.80;;;;;;7384403;19;20034;-66
2022/09/14 05:22:51;;;;;;;17.25;14.50;;;17.40;74.10;;;;;;7368191;19;20006;-66
2022/09/14 05:25:21;;;;;;;17.00;13.93;;;17.40;74.20;;;;;;7363150;19;20034;-66
2022/09/14 05:27:51;;;;;;;19.05;15.63;;;17.30;74.10;;;;;;7362601;19;20122;-66
2022/09/14 05:30:21;;;;;;;18.35;15.38;;;17.40;74.80;;;;;;7362800;19;20034;-67
2022/09/14 05:32:54;;;;;;;20.08;15.32;;;17.50;75.20;;;;;;7368032;19;20019;-67
2022/09/14 05:35:26;;;;;;;22.33;16.33;;;17.50;75.30;;;;;;7384316;19;20040;-67
2022/09/14 05:37:56;;;;;;;18.88;15.27;;;17.70;75.80;;;;;;7363342;19;20014;-66
2022/09/14 05:40:26;;;;;;;17.40;14.68;;;17.60;75.40;;;;;;7362286;19;20007;-66
2022/09/14 05:42:56;;;;;;;21.30;16.52;;;17.80;76.00;;;;;;7367203;19;20019;-67
2022/09/14 05:45:26;;;;;;;19.20;14.88;;;17.80;76.40;;;;;;7361698;19;20039;-67
2022/09/14 05:48:03;;;;;;;17.80;14.43;;;17.70;75.40;;;;;;7363013;19;20581;-66
2022/09/14 05:50:33;;;;;;;16.55;14.07;;;17.80;75.60;;;;;;7382673;19;20451;-66
2022/09/14 05:53:03;;;;;;;18.35;14.52;;;18.00;75.80;;;;;;7366261;19;20011;-67
2022/09/14 05:55:33;;;;;;;18.45;13.95;;;18.00;75.60;;;;;;7362537;19;20007;-67
2022/09/14 05:58:03;;;;;;;16.67;14.07;;;18.00;75.00;;;;;;7362592;19;20010;-67
2022/09/14 06:00:33;;;;;;;17.20;14.70;;;18.00;74.80;;;;;;7360478;19;20014;-68
2022/09/14 06:03:06;;;;;;;17.40;13.75;;;18.00;75.10;;;;;;7366622;19;20018;-67
2022/09/14 06:05:36;;;;;;;20.23;14.50;;;18.00;74.00;;;;;;7383777;19;20011;-67
2022/09/14 06:08:06;;;;;;;17.65;13.35;;;18.10;74.10;;;;;;7363679;19;20010;-67
2022/09/14 06:10:36;;;;;;;16.30;12.38;;;18.20;73.60;;;;;;7358128;19;20018;-67
2022/09/14 06:13:06;;;;;;;17.05;12.45;;;18.30;73.70;;;;;;7364758;19;20014;-67
2022/09/14 06:15:36;;;;;;;13.13;11.65;;;18.30;72.10;;;;;;7361770;19;20010;-67
2022/09/14 06:18:09;;;;;;;13.80;12.40;;;18.30;70.50;;;;;;7363431;19;20050;-67
2022/09/14 06:20:39;;;;;;;16.73;11.55;;;18.40;70.70;;;;;;7361613;19;20017;-68
2022/09/14 06:23:08;;;;;;;13.10;11.63;;;18.50;69.90;;;;;;7386555;19;20018;-67
2022/09/14 06:25:38;;;;;;;19.90;11.20;;;18.60;69.70;;;;;;7359910;19;20293;-67
2022/09/14 06:28:08;;;;;;;18.45;11.43;;;18.60;69.20;;;;;;7364092;19;20613;-67
2022/09/14 06:30:37;;;;;;;13.05;10.55;;;18.70;69.30;;;;;;7359653;19;20034;-67
2022/09/14 06:33:10;;;;;;;17.60;10.52;;;18.70;67.10;;;;;;7364310;19;20018;-66
2022/09/14 06:35:40;;;;;;;12.90;8.88;;;18.80;68.20;;;;;;7360680;19;20015;-67
2022/09/14 06:38:10;;;;;;;12.48;9.07;;;18.80;65.70;;;;;;7384478;19;20017;-67
2022/09/14 06:40:40;;;;;;;9.88;7.75;;;19.00;65.20;;;;;;7358325;19;20521;-67
2022/09/14 06:43:10;;;;;;;9.57;7.78;;;19.10;64.50;;;;;;7364294;19;20498;-67
2022/09/14 06:45:40;;;;;;;12.10;7.40;;;19.10;62.30;;;;;;7360237;19;20014;-67
2022/09/14 06:48:12;;;;;;;8.98;7.10;;;19.20;61.90;;;;;;7363709;19;20010;-68
2022/09/14 06:50:42;;;;;;;7.78;6.93;;;19.30;60.60;;;;;;7358327;19;20021;-66
2022/09/14 06:53:12;;;;;;;10.30;7.38;;;19.40;61.00;;;;;;7386466;19;20037;-66
2022/09/14 06:55:43;;;;;;;9.55;7.05;;;19.40;59.50;;;;;;7358539;19;20770;-68
2022/09/14 06:58:13;;;;;;;8.10;6.97;;;19.60;60.20;;;;;;7362150;19;20372;-68
2022/09/14 07:00:43;;;;;;;9.25;6.45;;;19.60;59.00;;;;;;7357831;19;20018;-67
2022/09/14 07:03:15;;;;;;;10.63;6.85;;;19.70;58.10;;;;;;7362781;19;20007;-67
2022/09/14 07:05:45;;;;;;;11.43;6.40;;;19.70;56.70;;;;;;7356768;19;20488;-67
2022/09/14 07:08:15;;;;;;;9.02;6.78;;;19.90;56.70;;;;;;7385269;19;20017;-67
2022/09/14 07:10:45;;;;;;;8.75;6.40;;;20.10;58.00;;;;;;7357682;19;20066;-67
2022/09/14 07:13:14;;;;;;;9.45;6.10;;;20.20;56.70;;;;;;7363089;19;20729;-67
2022/09/14 07:15:50;;;;;;;9.82;5.63;;;20.40;56.10;;;;;;7358976;19;20010;-68
2022/09/14 07:18:27;;;;;;;7.40;5.53;;;20.70;54.40;;;;;;7363325;19;20031;-68
2022/09/14 07:20:57;;;;;;;6.97;5.28;;;20.60;50.60;;;;;;7358326;19;20021;-67
2022/09/14 07:23:33;;;;;;;11.30;8.07;;;20.80;50.50;;;;;;7389853;19;20470;-67
2022/09/14 07:26:05;;;;;;;10.23;6.90;;;21.10;50.00;;;;;;7365950;19;20018;-67
2022/09/14 07:28:35;;;;;;;10.50;5.00;;;21.10;46.90;;;;;;7369538;19;20490;-67
2022/09/14 07:31:06;;;;;;;9.13;5.03;;;21.00;46.30;;;;;;7365326;19;20006;-68
2022/09/14 07:33:38;;;;;;;7.80;4.57;;;21.20;47.00;;;;;;7368718;19;20027;-67
2022/09/14 07:36:10;;;;;;;6.05;4.15;;;21.20;45.80;;;;;;7367816;19;20082;-68
2022/09/14 07:38:40;;;;;;;9.80;4.20;;;21.40;44.10;;;;;;7368500;19;20126;-69
2022/09/14 07:41:22;;;;;;;5.85;3.97;;;21.50;40.00;;;;;;7381157;19;20018;-67
2022/09/14 07:43:52;;;;;;;7.53;3.70;;;21.70;41.20;;;;;;7368446;19;20026;-66
2022/09/14 07:46:23;;;;;;;6.05;3.90;;;21.80;40.80;;;;;;7365842;19;20014;-66
2022/09/14 07:48:59;;;;;;;6.95;3.78;;;21.80;38.90;;;;;;7367811;19;20010;-65
2022/09/14 07:51:30;;;;;;;7.30;3.80;;;21.90;40.20;;;;;;7363975;19;20015;-67
2022/09/14 07:54:00;;;;;;;5.43;3.85;;;21.80;39.20;;;;;;7369398;19;20021;-66
2022/09/14 07:56:30;;;;;;;6.60;3.08;;;21.90;36.30;;;;;;7386978;19;20029;-67
2022/09/14 07:59:01;;;;;;;5.10;3.45;;;21.90;39.00;;;;;;7366874;19;20010;-67
2022/09/14 08:01:51;;;;;;;11.18;4.00;;;21.90;36.00;;;;;;7361065;19;20025;-67
2022/09/14 08:04:24;;;;;;;7.15;3.35;;;21.90;37.00;;;;;;7366337;19;20098;-67
2022/09/14 08:06:53;;;;;;;7.88;3.75;;;21.90;33.90;;;;;;7367440;19;20474;-67
2022/09/14 08:09:24;;;;;;;5.50;3.75;;;22.20;34.00;;;;;;7368684;19;20010;-67
2022/09/14 08:11:54;;;;;;;7.72;3.10;;;22.50;33.60;;;;;;7364173;19;20409;-69
2022/09/14 08:14:24;;;;;;;4.47;3.42;;;22.40;30.00;;;;;;7390397;19;20018;-66
2022/09/14 08:16:54;;;;;;;6.22;3.10;;;22.50;29.90;;;;;;7364610;19;20017;-66
2022/09/14 08:19:27;;;;;;;6.88;3.50;;;22.50;30.40;;;;;;7364652;19;20490;-66
2022/09/14 08:21:57;;;;;;;4.25;3.00;;;22.50;29.90;;;;;;7364099;19;20035;-67
2022/09/14 08:24:26;;;;;;;6.40;3.20;;;22.50;27.20;;;;;;7366633;19;20013;-66
2022/09/14 08:26:56;;;;;;;6.05;3.10;;;22.50;27.90;;;;;;7366753;19;20046;-67
2022/09/14 08:29:26;;;;;;;3.75;2.80;;;22.40;28.80;;;;;;7390145;19;20041;-66
2022/09/14 08:31:57;;;;;;;5.18;3.20;;;22.40;26.80;;;;;;7364665;19;20074;-67
2022/09/14 08:34:30;;;;;;;6.68;3.20;;;22.50;26.50;;;;;;7365125;19;20007;-66
2022/09/14 08:36:59;;;;;;;3.58;2.88;;;22.40;27.00;;;;;;7365156;19;20363;-67
2022/09/14 08:39:29;;;;;;;6.25;3.05;;;22.50;27.20;;;;;;7366215;19;20011;-66
2022/09/14 08:42:02;;;;;;;5.43;3.40;;;22.40;26.70;;;;;;7364394;19;20000;-65
2022/09/14 08:44:37;;;;;;;10.60;3.22;;;22.60;27.20;;;;;;7384404;19;20018;-67
2022/09/14 08:47:13;;;;;;;4.38;3.30;;;22.50;26.70;;;;;;7363611;19;20010;-68
2022/09/14 08:49:50;;;;;;;10.45;3.28;;;22.80;24.60;;;;;;7363376;19;20374;-67
2022/09/14 08:52:27;;;;;;;6.40;3.20;;;22.80;26.50;;;;;;7363890;19;20011;-66
2022/09/14 08:55:00;;;;;;;7.18;3.47;;;22.80;24.40;;;;;;7361253;19;20091;-67
2022/09/14 08:57:35;;;;;;;6.97;3.00;;;23.00;24.20;;;;;;7363101;19;20014;-66
2022/09/14 09:00:10;;;;;;;4.00;3.05;;;23.10;25.10;;;;;;7361528;19;20022;-66
2022/09/14 09:03:00;;;;;;;4.38;3.00;;;23.10;22.90;;;;;;7364800;19;20023;-66
2022/09/14 09:05:41;;;;;;;5.32;3.13;;;23.20;22.20;;;;;;7384653;19;20010;-67
2022/09/14 09:08:19;;;;;;;4.00;2.95;;;23.30;21.30;;;;;;7365209;19;20010;-67
2022/09/14 09:10:51;;;;;;;9.50;3.30;;;23.50;17.00;;;;;;7359684;19;20014;-67
2022/09/14 09:13:23;;;;;;;3.55;2.75;;;23.40;18.30;;;;;;7365183;19;20011;-65
2022/09/14 09:15:58;;;;;;;9.05;3.38;;;23.30;19.30;;;;;;7361504;19;21014;-66
2022/09/14 09:18:37;;;;;;;5.30;2.85;;;23.50;17.00;;;;;;7365661;19;20011;-66
2022/09/14 09:21:14;;;;;;;5.13;2.97;;;23.80;16.90;;;;;;7359837;19;20006;-66
2022/09/14 09:23:45;;;;;;;3.28;2.80;;;24.30;13.10;;;;;;7364559;19;20392;-66
2022/09/14 09:26:22;;;;;;;7.80;3.00;;;24.10;8.40;;;;;;7382945;19;20015;-66
2022/09/14 09:28:55;;;;;;;6.03;3.08;;;24.20;13.60;;;;;;7366635;19;20022;-66
2022/09/14 09:31:31;;;;;;;7.07;3.42;;;24.00;15.10;;;;;;7358140;19;20022;-67
2022/09/14 09:34:02;;;;;;;5.50;3.05;;;23.90;15.70;;;;;;7363715;19;20038;-67
2022/09/14 09:36:38;;;;;;;5.82;3.00;;;24.00;11.20;;;;;;7361273;19;20007;-65
2022/09/14 09:39:08;;;;;;;6.85;3.47;;;24.10;16.40;;;;;;7363391;19;20014;-67
2022/09/14 09:41:45;;;;;;;5.90;3.38;;;24.00;16.00;;;;;;7380916;19;20018;-67
2022/09/14 09:44:15;;;;;;;4.97;2.80;;;24.00;11.70;;;;;;7362784;19;20006;-67
2022/09/14 09:46:50;;;;;;;4.05;2.33;;;24.20;8.10;;;;;;7357002;19;20022;-66
2022/09/14 09:49:26;;;;;;;4.40;2.40;;;24.50;5.10;;;;;;7364543;19;20348;-68
2022/09/14 09:52:07;;;;;;;6.30;2.15;;;24.90;2.80;;;;;;7359339;19;20025;-66
2022/09/14 09:54:39;;;;;;;3.90;2.22;;;25.30;1.00;;;;;;7358732;19;20495;-67
2022/09/14 09:57:23;;;;;;;3.88;2.13;;;25.30;1.00;;;;;;7362531;19;20018;-67
2022/09/14 09:59:52;;;;;;;9.30;2.58;;;24.90;1.00;;;;;;7359567;19;20014;-66
2022/09/14 10:02:25;;;;;;;3.95;2.03;;;25.10;1.00;;;;;;7383491;19;20018;-67
2022/09/14 10:05:03;;;;;;;5.65;1.98;;;25.70;1.00;;;;;;7360859;19;20114;-67
2022/09/14 10:07:39;;;;;;;4.70;2.30;;;25.70;1.00;;;;;;7363176;19;20006;-67
2022/09/14 10:10:12;;;;;;;4.75;2.20;;;25.60;1.00;;;;;;7362675;19;20006;-67
2022/09/14 10:12:53;;;;;;;4.90;2.53;;;25.80;1.00;;;;;;7362291;19;20014;-67
2022/09/14 10:15:24;;;;;;;4.57;2.40;;;25.60;1.00;;;;;;7360367;19;20010;-67
2022/09/14 10:18:09;;;;;;;5.53;2.28;;;25.40;1.00;;;;;;7363887;19;20016;-68
2022/09/14 10:20:41;;;;;;;7.95;2.67;;;25.60;1.00;;;;;;7382363;19;20375;-67
2022/09/14 10:23:26;;;;;;;4.22;2.47;;;25.50;1.00;;;;;;7363767;19;20010;-68
2022/09/14 10:26:28;;;;;;;5.63;2.55;;;25.40;1.00;;;;;;7360745;19;20037;-67
2022/09/14 10:29:25;;;;;;;5.22;2.42;;;25.00;1.00;;;;;;7366082;19;20073;-66
2022/09/14 10:31:59;;;;;;;2.40;2.20;;;24.70;1.00;;;;;;7358510;19;20014;-67
2022/09/14 10:34:30;;;;;;;5.88;2.53;;;24.80;1.00;;;;;;7362948;19;20028;-67
2022/09/14 10:37:13;;;;;;;3.85;2.70;;;24.70;1.00;;;;;;7356562;19;20013;-67
2022/09/14 10:39:52;;;;;;;3.35;2.45;;;24.80;1.00;;;;;;7359887;19;20006;-67
2022/09/14 10:42:33;;;;;;;3.42;2.40;;;24.90;1.00;;;;;;7360977;19;20014;-66
2022/09/14 10:45:17;;;;;;;4.55;2.05;;;24.80;1.00;;;;;;7359213;19;20017;-68
2022/09/14 10:48:07;;;;;;;3.28;2.30;;;24.90;1.00;;;;;;7360182;19;20085;-66
2022/09/14 10:50:50;;;;;;;4.20;1.80;;;25.20;1.00;;;;;;7380622;19;20046;-67
2022/09/14 10:53:35;;;;;;;5.43;2.10;;;25.20;1.00;;;;;;7361614;19;20003;-67
2022/09/14 10:56:15;;;;;;;3.13;1.92;;;25.40;1.00;;;;;;7358434;19;20430;-67
2022/09/14 10:59:04;;;;;;;4.40;2.30;;;25.30;1.00;;;;;;7363773;19;20383;-68
2022/09/14 11:01:56;;;;;;;4.40;1.92;;;25.60;1.00;;;;;;7355947;19;20014;-66
2022/09/14 11:04:46;;;;;;;2.92;1.98;;;25.80;1.00;;;;;;7361787;19;20097;-67
2022/09/14 11:07:23;;;;;;;4.85;2.00;;;25.80;1.00;;;;;;7360312;19;20010;-67
2022/09/14 11:10:02;;;;;;;5.57;1.92;;;25.70;1.00;;;;;;7360050;19;20562;-67
2022/09/14 11:12:43;;;;;;;3.92;2.10;;;25.50;1.00;;;;;;7359784;19;20010;-68
2022/09/14 11:15:22;;;;;;;5.78;1.92;;;25.40;1.00;;;;;;7356982;19;20041;-68
2022/09/14 11:18:10;;;;;;;4.28;2.25;;;25.50;1.00;;;;;;7359108;19;20018;-67
2022/09/14 11:20:50;;;;;;;4.05;1.90;;;25.70;1.00;;;;;;7377354;19;20018;-69
2022/09/14 11:23:32;;;;;;;3.70;1.95;;;26.00;1.00;;;;;;7371633;19;20018;-67
2022/09/14 11:26:05;;;;;;;4.47;1.90;;;26.30;1.00;;;;;;7351775;19;20021;-67
2022/09/14 11:28:43;;;;;;;5.73;1.90;;;26.50;1.00;;;;;;7361677;19;20524;-67
2022/09/14 11:31:17;;;;;;;4.88;1.85;;;26.80;1.00;;;;;;7354792;19;20247;-66
2022/09/14 11:33:52;;;;;;;5.53;2.15;;;26.60;1.00;;;;;;7361332;19;20010;-67
2022/09/14 11:36:27;;;;;;;2.20;1.77;;;26.60;1.00;;;;;;7357480;19;20654;-67
2022/09/14 11:39:02;;;;;;;2.47;2.00;;;26.30;1.00;;;;;;7361255;19;20019;-67
2022/09/14 11:41:40;;;;;;;3.47;1.75;;;26.00;1.00;;;;;;7374771;19;20019;-69
2022/09/14 11:44:18;;;;;;;4.30;1.95;;;26.00;1.00;;;;;;7358333;19;20374;-66
2022/09/14 11:46:52;;;;;;;4.68;1.80;;;26.00;1.00;;;;;;7354449;19;20430;-67
2022/09/14 11:49:33;;;;;;;2.60;1.90;;;26.10;1.00;;;;;;7360072;19;20019;-67
2022/09/14 11:52:09;;;;;;;4.53;1.65;;;26.00;1.00;;;;;;7357180;19;20014;-67
2022/09/14 11:54:41;;;;;;;3.40;1.80;;;26.10;1.00;;;;;;7357404;19;20006;-67
2022/09/14 11:57:19;;;;;;;6.28;2.25;;;26.40;1.00;;;;;;7359282;19;20006;-67
2022/09/14 11:59:54;;;;;;;3.75;1.75;;;26.10;1.00;;;;;;7357233;19;20034;-67
2022/09/14 12:03:14;;;;;;;2.63;1.80;;;25.90;1.00;;;;;;7380413;19;20033;-67
2022/09/14 12:05:45;;;;;;;4.90;3.42;;;26.10;1.00;;;;;;7255263;19;2004122;-67
2022/09/14 12:08:41;;;;;;;4.70;1.80;;;26.30;1.00;;;;;;7385041;19;20486;-67
2022/09/14 12:11:32;;;;;;;4.63;1.70;;;26.50;1.00;;;;;;7359673;19;20014;-66
2022/09/14 12:14:34;;;;;;;5.63;1.58;;;26.70;1.00;;;;;;7365926;19;20014;-67
2022/09/14 12:17:15;;;;;;;5.85;1.75;;;26.70;1.00;;;;;;7365610;19;20014;-67
2022/09/14 12:20:32;;;;;;;3.50;2.00;;;26.60;1.00;;;;;;7362231;19;20565;-67
2022/09/14 12:23:08;;;;;;;3.17;1.73;;;26.50;1.00;;;;;;7363070;19;20561;-66
2022/09/14 12:25:40;;;;;;;4.45;1.77;;;26.40;1.00;;;;;;7363087;19;20014;-68
2022/09/14 12:28:29;;;;;;;5.13;1.90;;;26.10;1.00;;;;;;7366302;19;20030;-66
2022/09/14 12:31:13;;;;;;;3.15;1.65;;;25.90;1.00;;;;;;7361667;19;20022;-66
2022/09/14 12:34:16;;;;;;;5.25;1.75;;;25.90;1.00;;;;;;7366128;19;20015;-67
2022/09/14 12:37:06;;;;;;;3.80;2.00;;;25.70;1.00;;;;;;7364082;19;20010;-68
2022/09/14 12:40:00;;;;;;;;;;;25.60;1.00;;;;;;7367008;19;20598;-68
2022/09/14 12:42:33;;;;;;;4.07;1.70;;;25.50;1.00;;;;;;7361499;19;20442;-67
2022/09/14 12:45:32;;;;;;;3.72;2.20;;;25.30;1.00;;;;;;7360889;19;20023;-67
2022/09/14 12:48:02;;;;;;;6.88;2.10;;;25.20;1.00;;;;;;7363154;19;20043;-66
2022/09/14 12:50:35;;;;;;;8.85;2.70;;;25.10;1.00;;;;;;7368612;19;21002;-67
2022/09/14 12:53:25;;;;;;;2.43;1.53;;;25.10;1.00;;;;;;7363049;19;20014;-67
2022/09/14 12:56:08;;;;;;;3.92;1.83;;;25.00;1.00;;;;;;7362672;19;20010;-67
2022/09/14 12:58:58;;;;;;;4.30;2.40;;;24.70;1.00;;;;;;7365473;19;20371;-67
2022/09/14 13:01:36;;;;;;;9.20;2.70;;;24.30;1.00;;;;;;7357709;19;20435;-66
2022/09/14 13:04:07;;;;;;;6.22;2.83;;;23.90;1.00;;;;;;7360826;19;20450;-68
2022/09/14 13:06:44;;;;;;;7.68;4.53;;;23.40;5.30;;;;;;7349583;19;20006;-66
2022/09/14 13:09:20;;;;;;;5.20;2.55;;;23.00;11.30;;;;;;7354359;19;20498;-67
2022/09/14 13:11:57;;;;;;;4.43;2.53;;;22.60;13.50;;;;;;7356512;19;20022;-66
2022/09/14 13:14:33;;;;;;;5.63;2.70;;;22.20;16.70;;;;;;7386427;19;20019;-66
2022/09/14 13:17:04;;;;;;;6.53;2.78;;;21.90;22.90;;;;;;7361562;19;20026;-66
2022/09/14 13:19:35;;;;;;;5.05;2.90;;;21.60;23.00;;;;;;7366090;19;20030;-66
2022/09/14 13:22:19;;;;;;;5.95;2.92;;;21.30;24.70;;;;;;7361545;19;20396;-66
2022/09/14 13:24:50;;;;;;;7.75;2.97;;;21.20;29.00;;;;;;7362729;19;20019;-68
2022/09/14 13:27:25;;;;;;;5.82;2.70;;;21.00;30.90;;;;;;7364596;19;20035;-66